createdAt,value
2023-04-01T00:00:44.250Z,9.87
2023-04-01T00:03:10.346Z,10.10
2023-04-01T00:05:35.841Z,10.07
2023-04-01T00:08:01.257Z,10.10
2023-04-01T00:09:10.724Z,9.93
2023-04-01T00:11:35.369Z,10.19
2023-04-01T00:14:00.908Z,10.32
2023-04-01T00:16:29.234Z,10.29
2023-04-01T00:18:56.410Z,10.14
2023-04-01T00:21:23.628Z,10.22
2023-04-01T00:23:48.904Z,10.46
2023-04-01T00:26:18.494Z,10.47
2023-04-01T00:28:44.444Z,10.58
2023-04-01T00:31:11.171Z,10.51
2023-04-01T00:33:38.727Z,10.39
2023-04-01T00:36:15.350Z,10.42
2023-04-01T00:38:43.145Z,10.49
2023-04-01T01:42:00.201Z,11.65
2023-04-01T01:44:32.400Z,11.50
2023-04-01T01:47:03.789Z,11.22
2023-04-01T01:48:13.494Z,11.01
2023-04-01T01:50:42.823Z,10.93
2023-04-01T01:51:53.730Z,10.79
2023-04-01T01:54:21.993Z,10.87
2023-04-01T01:55:35.286Z,10.80
2023-04-01T01:58:17.334Z,11.00
2023-04-01T01:59:29.850Z,10.91
2023-04-01T02:01:58.011Z,11.14
2023-04-01T02:04:24.256Z,11.23
2023-04-01T02:06:53.311Z,11.40
2023-04-01T02:09:22.415Z,11.51
2023-04-01T02:13:30.281Z,11.57
2023-04-01T02:16:17.240Z,11.53
2023-04-01T02:17:33.708Z,11.43
2023-04-01T02:18:46.459Z,11.33
2023-04-01T02:21:19.217Z,11.22
2023-04-01T02:23:48.456Z,11.08
2023-04-01T02:26:22.320Z,10.94
2023-04-01T02:28:50.707Z,10.91
2023-04-01T02:30:02.167Z,10.79
2023-04-01T02:31:13.479Z,10.86
2023-04-01T02:32:22.852Z,10.85
2023-04-01T02:34:48.952Z,11.02
2023-04-01T02:37:18.224Z,11.12
2023-04-01T02:38:28.446Z,11.05
2023-04-01T02:40:59.923Z,11.30
2023-04-01T02:42:11.256Z,11.26
2023-04-01T02:44:39.426Z,11.48
2023-04-01T02:47:04.540Z,11.56
2023-04-01T02:49:32.807Z,11.70
2023-04-01T02:51:58.057Z,11.77
2023-04-01T02:54:23.285Z,11.77
2023-04-01T02:55:33.199Z,11.64
2023-04-01T02:57:59.180Z,11.83
2023-04-01T02:59:10.155Z,11.66
2023-04-01T03:01:37.144Z,11.52
2023-04-01T03:02:47.009Z,11.34
2023-04-01T03:05:12.227Z,11.26
2023-04-01T03:07:39.371Z,11.15
2023-04-01T03:10:05.780Z,10.97
2023-04-01T03:12:31.963Z,10.98
2023-04-01T03:14:56.740Z,11.09
2023-04-01T03:17:23.702Z,11.23
2023-04-01T03:19:49.794Z,11.34
2023-04-01T03:22:30.048Z,11.42
2023-04-01T03:24:54.939Z,11.24
2023-04-01T03:27:20.997Z,10.95
2023-04-01T03:29:45.463Z,10.75
2023-04-01T03:32:12.324Z,10.64
2023-04-01T03:34:37.184Z,10.71
2023-04-01T03:37:02.093Z,10.85
2023-04-01T03:38:11.727Z,10.80
2023-04-01T03:40:37.399Z,11.13
2023-04-01T03:43:03.184Z,11.28
2023-04-01T03:45:31.119Z,11.34
2023-04-01T03:46:41.685Z,11.25
2023-04-01T03:47:51.448Z,11.26
2023-04-01T03:49:01.306Z,11.29
2023-04-01T03:50:11.383Z,11.29
2023-04-01T03:52:35.872Z,11.40
2023-04-01T03:54:59.660Z,11.22
2023-04-01T03:56:10.280Z,11.06
2023-04-01T03:57:20.066Z,11.07
2023-04-01T03:59:44.865Z,11.28
2023-04-01T04:02:10.143Z,11.40
2023-04-01T04:04:37.408Z,11.53
2023-04-01T04:07:05.572Z,11.64
2023-04-01T04:09:33.838Z,11.70
2023-04-01T04:10:44.446Z,11.57
2023-04-01T04:11:53.016Z,11.52
2023-04-01T04:14:17.478Z,11.47
2023-04-01T04:16:44.245Z,11.25
2023-04-01T04:19:31.629Z,10.93
2023-04-01T04:22:08.933Z,10.67
2023-04-01T04:24:36.732Z,10.63
2023-04-01T04:27:18.649Z,10.81
2023-04-01T04:29:45.614Z,10.95
2023-04-01T04:32:11.408Z,11.01
2023-04-01T04:33:21.192Z,10.99
2023-04-01T04:34:32.114Z,11.08
2023-04-01T04:35:41.269Z,11.11
2023-04-01T04:38:06.629Z,11.24
2023-04-01T04:40:32.756Z,11.35
2023-04-01T04:42:58.711Z,11.43
2023-04-01T04:44:08.118Z,11.36
2023-04-01T04:46:32.269Z,11.64
2023-04-01T04:48:59.565Z,11.70
2023-04-01T04:51:29.381Z,11.75
2023-04-01T04:52:38.508Z,11.46
2023-04-01T04:55:03.984Z,11.40
2023-04-01T04:57:28.243Z,11.16
2023-04-01T04:59:55.810Z,11.04
2023-04-01T05:02:42.213Z,11.20
2023-04-01T05:05:08.254Z,11.33
2023-04-01T05:07:36.332Z,11.36
2023-04-01T05:08:46.663Z,11.26
2023-04-01T05:09:55.877Z,11.15
2023-04-01T05:12:22.677Z,11.39
2023-04-01T05:14:58.290Z,11.62
2023-04-01T05:17:52.659Z,11.75
2023-04-01T05:20:17.742Z,11.63
2023-04-01T05:21:27.197Z,11.52
2023-04-01T05:23:52.943Z,11.59
2023-04-01T05:26:17.780Z,11.40
2023-04-01T05:28:43.386Z,11.25
2023-04-01T05:29:55.065Z,11.05
2023-04-01T05:33:12.038Z,11.14
2023-04-01T05:35:37.263Z,11.39
2023-04-01T05:38:02.328Z,11.46
2023-04-01T05:40:29.759Z,11.54
2023-04-01T05:42:58.291Z,11.47
2023-04-01T05:45:23.058Z,11.50
2023-04-01T05:47:50.001Z,11.36
2023-04-01T05:50:20.409Z,11.21
2023-04-01T05:51:30.321Z,11.14
2023-04-01T05:53:57.102Z,11.44
2023-04-01T05:56:22.485Z,11.68
2023-04-01T05:58:52.429Z,11.83
2023-04-01T06:01:16.743Z,11.92
2023-04-01T06:03:43.450Z,11.94
2023-04-01T06:06:29.573Z,11.70
2023-04-01T06:10:22.256Z,11.29
2023-04-01T06:12:01.614Z,11.01
2023-04-01T06:15:19.042Z,11.25
2023-04-01T06:18:25.314Z,11.38
2023-04-01T06:24:16.109Z,11.68
2023-04-01T06:28:43.991Z,11.91
2023-04-01T06:31:40.888Z,12.10
2023-04-01T06:33:09.213Z,12.02
2023-04-01T06:35:57.691Z,12.22
2023-04-01T06:39:03.126Z,12.16
2023-04-01T06:42:00.405Z,12.12
2023-04-01T06:44:42.904Z,12.00
2023-04-01T06:47:56.495Z,11.84
2023-04-01T06:51:25.377Z,11.69
2023-04-01T06:52:53.923Z,11.52
2023-04-01T06:55:58.826Z,11.38
2023-04-01T06:58:54.106Z,11.50
2023-04-01T07:01:35.135Z,11.54
2023-04-01T07:04:21.099Z,11.73
2023-04-01T07:06:55.032Z,11.83
2023-04-01T07:09:32.087Z,11.84
2023-04-01T07:11:31.287Z,11.71
2023-04-01T07:14:46.277Z,11.72
2023-04-01T07:17:25.114Z,11.53
2023-04-01T07:20:06.632Z,11.50
2023-04-01T07:22:52.312Z,11.40
2023-04-01T07:25:48.967Z,11.54
2023-04-01T07:29:05.496Z,11.80
2023-04-01T07:33:46.476Z,12.19
2023-04-01T07:36:40.763Z,12.32
2023-04-01T07:39:28.152Z,12.37
2023-04-01T07:42:37.069Z,12.27
2023-04-01T07:45:21.293Z,12.11
2023-04-01T07:48:31.780Z,11.93
2023-04-01T07:51:30.413Z,11.83
2023-04-01T07:55:57.306Z,11.68
2023-04-01T08:02:01.132Z,11.70
2023-04-01T08:03:39.186Z,11.64
2023-04-01T08:06:36.095Z,12.04
2023-04-01T08:09:22.635Z,12.14
2023-04-01T08:12:36.848Z,12.25
2023-04-01T08:17:27.115Z,12.18
2023-04-01T08:18:55.360Z,12.04
2023-04-01T08:21:45.544Z,12.09
2023-04-01T08:26:05.494Z,11.97
2023-04-01T08:30:40.796Z,11.94
2023-04-01T08:33:31.676Z,12.00
2023-04-01T08:36:11.340Z,12.18
2023-04-01T08:37:26.160Z,12.19
2023-04-01T08:38:59.590Z,12.33
2023-04-01T08:41:57.236Z,12.70
2023-04-01T08:45:24.459Z,12.93
2023-04-01T08:50:18.611Z,12.75
2023-04-01T08:53:18.874Z,12.76
2023-04-01T08:56:27.699Z,12.72
2023-04-01T08:57:58.886Z,12.57
2023-04-01T09:01:40.804Z,12.54
2023-04-01T09:04:29.921Z,12.45
2023-04-01T09:07:30.671Z,12.34
2023-04-01T09:10:14.170Z,12.39
2023-04-01T09:13:18.933Z,12.43
2023-04-01T09:16:06.757Z,12.45
2023-04-01T09:19:11.102Z,12.49
2023-04-01T09:22:01.575Z,12.48
2023-04-01T09:26:17.586Z,12.37
2023-04-01T09:29:40.648Z,12.55
2023-04-01T09:32:27.547Z,12.68
2023-04-01T09:35:26.863Z,12.78
2023-04-01T09:38:16.479Z,12.82
2023-04-01T09:41:33.844Z,12.96
2023-04-01T09:44:28.362Z,13.09
2023-04-01T09:48:14.239Z,13.09
2023-04-01T09:52:28.653Z,13.13
2023-04-01T09:55:53.520Z,13.24
2023-04-01T09:58:46.570Z,13.33
2023-04-01T10:02:01.214Z,13.33
2023-04-01T10:05:24.029Z,13.38
2023-04-01T10:08:35.583Z,13.42
2023-04-01T10:12:03.537Z,13.47
2023-04-01T10:13:51.857Z,13.34
2023-04-01T10:20:08.730Z,13.37
2023-04-01T10:23:18.015Z,13.42
2023-04-01T10:26:10.322Z,13.43
2023-04-01T10:29:32.282Z,13.45
2023-04-01T10:32:16.666Z,13.55
2023-04-01T10:35:39.016Z,13.78
2023-04-01T10:38:22.598Z,13.75
2023-04-01T10:41:20.604Z,13.78
2023-04-01T10:45:05.222Z,13.98
2023-04-01T10:46:41.196Z,13.91
2023-04-01T10:49:38.959Z,14.12
2023-04-01T10:52:44.642Z,14.11
2023-04-01T10:55:50.054Z,14.15
2023-04-01T10:58:46.939Z,14.15
2023-04-01T11:02:29.146Z,14.27
2023-04-01T11:05:54.183Z,14.27
2023-04-01T11:09:06.668Z,14.32
2023-04-01T11:10:29.921Z,14.20
2023-04-01T11:13:38.715Z,14.30
2023-04-01T11:16:20.860Z,14.30
2023-04-01T11:19:34.444Z,14.40
2023-04-01T11:22:42.999Z,14.48
2023-04-01T11:24:05.387Z,14.39
2023-04-01T11:27:25.329Z,14.47
2023-04-01T11:30:39.247Z,14.55
2023-04-01T11:33:28.793Z,14.51
2023-04-01T11:35:04.085Z,14.41
2023-04-01T11:36:34.391Z,14.42
2023-04-01T11:41:28.232Z,14.58
2023-04-01T11:44:31.077Z,14.62
2023-04-01T11:46:10.414Z,14.51
2023-04-01T11:47:39.707Z,14.50
2023-04-01T11:50:45.669Z,14.60
2023-04-01T11:53:41.952Z,14.54
2023-04-01T11:55:25.216Z,14.43
2023-04-01T11:58:47.672Z,14.65
2023-04-01T12:01:44.375Z,14.74
2023-04-01T12:05:08.360Z,14.82
2023-04-01T12:08:04.042Z,14.89
2023-04-01T12:09:35.377Z,14.81
2023-04-01T12:12:16.794Z,15.00
2023-04-01T12:15:38.097Z,15.05
2023-04-01T12:18:39.668Z,15.09
2023-04-01T12:24:53.313Z,15.17
2023-04-01T12:26:09.507Z,15.07
2023-04-01T12:29:25.284Z,15.16
2023-04-01T12:32:16.951Z,15.10
2023-04-01T12:35:19.276Z,15.15
2023-04-01T12:38:21.527Z,15.17
2023-04-01T12:41:23.321Z,15.22
2023-04-01T12:44:35.691Z,15.24
2023-04-01T12:47:34.652Z,15.29
2023-04-01T12:50:48.559Z,15.28
2023-04-01T12:54:07.353Z,15.30
2023-04-01T12:56:51.762Z,15.35
2023-04-01T13:00:16.302Z,15.36
2023-04-01T13:01:49.382Z,15.23
2023-04-01T13:05:00.117Z,15.28
2023-04-01T13:06:21.049Z,15.19
2023-04-01T13:09:26.796Z,15.32
2023-04-01T13:12:12.724Z,15.38
2023-04-01T13:15:12.740Z,15.38
2023-04-01T13:18:11.225Z,15.40
2023-04-01T13:21:06.601Z,15.41
2023-04-01T13:24:02.484Z,15.40
2023-04-01T13:27:01.674Z,15.42
2023-04-01T13:31:11.102Z,15.44
2023-04-01T13:34:18.244Z,15.40
2023-04-01T13:37:27.348Z,15.38
2023-04-01T13:40:30.186Z,15.34
2023-04-01T13:43:23.799Z,15.29
2023-04-01T13:46:05.364Z,15.29
2023-04-01T13:49:00.866Z,15.27
2023-04-01T13:51:59.866Z,15.25
2023-04-01T13:55:24.158Z,15.27
2023-04-01T13:58:38.598Z,15.22
2023-04-01T14:01:41.532Z,15.17
2023-04-01T14:03:15.223Z,15.08
2023-04-01T14:05:56.420Z,15.15
2023-04-01T14:07:13.215Z,15.04
2023-04-01T14:10:11.172Z,15.16
2023-04-01T14:11:48.464Z,15.05
2023-04-01T14:16:33.125Z,15.11
2023-04-01T14:19:39.385Z,15.09
2023-04-01T14:24:06.512Z,15.07
2023-04-01T14:25:50.605Z,14.96
2023-04-01T14:28:40.217Z,15.00
2023-04-01T14:31:26.548Z,14.99
2023-04-01T14:34:40.914Z,14.96
2023-04-01T14:35:57.059Z,14.85
2023-04-01T14:38:57.398Z,14.94
2023-04-01T14:41:57.253Z,14.88
2023-04-01T14:45:20.913Z,14.86
2023-04-01T14:48:16.617Z,14.82
2023-04-01T14:50:57.421Z,14.82
2023-04-01T14:53:39.332Z,14.81
2023-04-01T14:54:52.121Z,14.68
2023-04-01T14:56:05.676Z,14.67
2023-04-01T14:58:52.755Z,14.76
2023-04-01T15:00:05.050Z,14.65
2023-04-01T15:02:57.295Z,14.74
2023-04-01T15:05:51.430Z,14.68
2023-04-01T15:08:33.692Z,14.62
2023-04-01T15:11:35.547Z,14.54
2023-04-01T15:14:32.570Z,14.41
2023-04-01T15:17:59.256Z,14.31
2023-04-01T15:21:22.657Z,14.16
2023-04-01T15:24:08.407Z,14.04
2023-04-01T15:27:18.997Z,13.87
2023-04-01T15:30:04.247Z,13.72
2023-04-01T15:31:17.785Z,13.56
2023-04-01T15:34:21.132Z,13.51
2023-04-01T15:37:19.104Z,13.35
2023-04-01T15:40:03.455Z,13.22
2023-04-01T15:43:00.306Z,13.10
2023-04-01T15:44:46.769Z,13.00
2023-04-01T15:49:38.202Z,13.03
2023-04-01T15:52:41.716Z,12.98
2023-04-01T15:55:45.479Z,13.09
2023-04-01T15:57:18.036Z,13.08
2023-04-01T15:58:50.999Z,13.18
2023-04-01T16:01:49.681Z,13.55
2023-04-01T16:05:01.302Z,13.76
2023-04-01T16:06:37.781Z,13.72
2023-04-01T16:09:14.661Z,13.89
2023-04-01T16:12:17.966Z,13.76
2023-04-01T16:15:28.336Z,13.64
2023-04-01T16:18:37.174Z,13.49
2023-04-01T16:21:49.757Z,13.40
2023-04-01T16:24:27.984Z,13.33
2023-04-01T16:25:49.024Z,13.19
2023-04-01T16:27:06.905Z,13.15
2023-04-01T16:30:03.013Z,13.20
2023-04-01T16:32:54.153Z,13.13
2023-04-01T16:35:50.048Z,13.08
2023-04-01T16:38:42.384Z,13.02
2023-04-01T16:41:34.991Z,12.93
2023-04-01T16:45:45.351Z,12.85
2023-04-01T16:48:45.698Z,12.77
2023-04-01T16:51:44.923Z,12.75
2023-04-01T16:56:06.790Z,12.77
2023-04-01T16:57:26.884Z,12.72
2023-04-01T17:00:22.708Z,13.00
2023-04-01T17:03:11.508Z,13.21
2023-04-01T17:05:58.007Z,13.39
2023-04-01T17:09:02.927Z,13.46
2023-04-01T17:13:25.221Z,13.29
2023-04-01T17:16:16.320Z,13.15
2023-04-01T17:18:54.511Z,12.97
2023-04-01T17:21:42.506Z,12.85
2023-04-01T17:24:50.553Z,12.84
2023-04-01T17:27:45.874Z,13.02
2023-04-01T17:30:32.295Z,13.22
2023-04-01T17:33:38.978Z,13.33
2023-04-01T17:35:09.400Z,13.24
2023-04-01T17:38:00.448Z,13.41
2023-04-01T17:41:05.171Z,13.50
2023-04-01T17:45:43.748Z,13.54
2023-04-01T17:48:39.747Z,13.50
2023-04-01T17:50:02.031Z,13.43
2023-04-01T17:51:18.308Z,13.44
2023-04-01T17:54:02.128Z,13.52
2023-04-01T17:57:04.094Z,13.53
2023-04-01T17:59:40.773Z,13.53
2023-04-01T18:02:46.575Z,13.54
2023-04-01T18:05:54.330Z,13.53
2023-04-01T18:09:05.218Z,13.48
2023-04-01T18:11:53.772Z,13.47
2023-04-01T18:13:12.407Z,13.37
2023-04-01T18:16:08.868Z,13.46
2023-04-01T18:19:14.933Z,13.45
2023-04-01T18:21:56.475Z,13.44
2023-04-01T18:24:47.000Z,13.50
2023-04-01T18:29:16.027Z,13.52
2023-04-01T18:33:27.337Z,13.41
2023-04-01T18:36:07.592Z,13.31
2023-04-01T18:38:56.863Z,13.31
2023-04-01T18:41:42.248Z,13.29
2023-04-01T18:44:25.772Z,13.33
2023-04-01T18:47:06.771Z,13.31
2023-04-01T18:50:16.865Z,13.34
2023-04-01T18:51:30.255Z,13.22
2023-04-01T18:54:14.087Z,13.27
2023-04-01T18:56:46.415Z,13.25
2023-04-01T18:59:54.968Z,13.25
2023-04-01T19:01:29.077Z,13.13
2023-04-01T19:04:18.465Z,13.15
2023-04-01T19:06:57.387Z,13.15
2023-04-01T19:11:25.657Z,13.17
2023-04-01T19:14:17.863Z,13.16
2023-04-01T19:17:16.069Z,13.07
2023-04-01T19:20:16.276Z,13.08
2023-04-01T19:21:47.429Z,13.01
2023-04-01T19:23:18.574Z,13.03
2023-04-01T19:27:47.429Z,12.92
2023-04-01T19:32:52.030Z,12.52
2023-04-01T19:36:05.074Z,12.30
2023-04-01T19:39:01.261Z,12.30
2023-04-01T19:42:01.205Z,12.36
2023-04-01T19:45:23.690Z,12.49
2023-04-01T19:48:39.748Z,12.50
2023-04-01T19:51:27.444Z,12.49
2023-04-01T19:52:43.639Z,12.36
2023-04-01T19:55:40.105Z,12.44
2023-04-01T19:59:53.607Z,12.42
2023-04-01T20:02:42.804Z,12.44
2023-04-01T20:05:26.603Z,12.43
2023-04-01T20:08:25.096Z,12.40
2023-04-01T20:12:41.568Z,12.39
2023-04-01T20:15:40.872Z,12.40
2023-04-01T20:20:03.761Z,12.40
2023-04-01T20:22:56.424Z,12.41
2023-04-01T20:25:56.297Z,12.39
2023-04-01T20:30:22.769Z,12.36
2023-04-01T20:33:03.906Z,12.33
2023-04-01T20:35:45.210Z,12.34
2023-04-01T20:38:38.690Z,12.32
2023-04-01T20:41:43.660Z,12.22
2023-04-01T20:44:49.549Z,12.24
2023-04-01T20:47:56.165Z,12.30
2023-04-01T20:50:46.957Z,12.30
2023-04-01T20:53:37.689Z,12.27
2023-04-01T20:56:22.216Z,12.29
2023-04-01T20:58:58.918Z,12.26
2023-04-01T21:02:17.226Z,12.25
2023-04-01T21:05:26.580Z,12.25
2023-04-01T21:08:33.875Z,12.26
2023-04-01T21:11:43.974Z,12.24
2023-04-01T21:13:18.486Z,12.08
2023-04-01T21:16:10.792Z,12.18
2023-04-01T21:18:58.304Z,12.19
2023-04-01T21:20:39.283Z,12.05
2023-04-01T21:22:02.031Z,12.00
2023-04-01T21:24:56.836Z,12.08
2023-04-01T21:27:45.435Z,12.11
2023-04-01T21:29:31.656Z,11.98
2023-04-01T21:32:35.880Z,12.07
2023-04-01T21:39:51.190Z,12.05
2023-04-01T21:42:31.418Z,11.98
2023-04-01T21:46:00.436Z,11.99
2023-04-01T21:49:09.241Z,11.98
2023-04-01T21:50:34.436Z,11.90
2023-04-01T21:53:55.741Z,12.04
2023-04-01T21:56:56.068Z,12.07
2023-04-01T22:00:06.747Z,12.09
2023-04-01T22:03:04.191Z,12.07
2023-04-01T22:04:36.343Z,11.91
2023-04-01T22:05:52.410Z,11.90
2023-04-01T22:08:44.033Z,12.08
2023-04-01T22:11:50.373Z,12.10
2023-04-01T22:14:45.152Z,12.10
2023-04-01T22:17:49.766Z,12.13
2023-04-01T22:19:24.382Z,12.03
2023-04-01T22:22:18.463Z,12.13
2023-04-01T22:25:02.938Z,12.11
2023-04-01T22:29:08.089Z,12.07
2023-04-01T22:31:46.903Z,12.07
2023-04-01T22:33:06.093Z,11.95
2023-04-01T22:36:07.367Z,12.03
2023-04-01T22:39:08.010Z,12.05
2023-04-01T22:42:05.810Z,12.04
2023-04-01T22:43:23.852Z,11.92
2023-04-01T22:44:50.249Z,11.90
2023-04-01T22:46:08.743Z,11.90
2023-04-01T22:50:23.445Z,11.94
2023-04-01T22:53:25.820Z,11.91
2023-04-01T22:56:00.643Z,11.90
2023-04-01T22:58:39.821Z,11.82
2023-04-01T22:59:55.422Z,11.67
2023-04-01T23:02:34.262Z,11.77
2023-04-01T23:05:04.732Z,11.79
2023-04-01T23:07:54.459Z,11.78
2023-04-01T23:10:33.707Z,11.80
2023-04-01T23:13:25.645Z,11.81
2023-04-01T23:15:55.385Z,11.81
2023-04-01T23:18:30.591Z,11.82
2023-04-01T23:20:15.625Z,11.67
2023-04-01T23:21:43.930Z,11.63
2023-04-01T23:24:57.553Z,11.66
2023-04-01T23:26:24.676Z,11.56
2023-04-01T23:29:00.182Z,11.65
2023-04-01T23:30:42.789Z,11.56
2023-04-01T23:33:23.509Z,11.57
2023-04-01T23:36:11.201Z,11.57
2023-04-01T23:37:22.300Z,11.45
2023-04-01T23:39:54.067Z,11.55
2023-04-01T23:41:04.199Z,11.40
2023-04-01T23:42:31.608Z,11.38
2023-04-01T23:43:43.978Z,11.38
2023-04-01T23:46:14.195Z,11.53
2023-04-01T23:48:46.211Z,11.50
2023-04-01T23:51:20.916Z,11.50
2023-04-01T23:54:01.054Z,11.49
2023-04-01T23:56:37.930Z,11.47
2023-04-01T23:59:34.327Z,11.48
